createdAt,value
2018-07-26T00:00:43.545Z,83.58
2018-07-26T00:03:48.117Z,84.70
2018-07-26T00:06:52.563Z,85.48
2018-07-26T00:09:56.985Z,84.68
2018-07-26T00:13:01.473Z,86.29
2018-07-26T00:16:06.610Z,86.49
2018-07-26T00:19:11.263Z,85.59
2018-07-26T00:22:16.371Z,85.61
2018-07-26T00:25:21.366Z,84.30
2018-07-26T00:28:29.194Z,83.76
2018-07-26T00:31:34.071Z,83.56
2018-07-26T00:34:39.466Z,83.87
2018-07-26T00:37:43.898Z,83.84
2018-07-26T00:40:48.337Z,83.80
2018-07-26T00:43:52.912Z,83.40
2018-07-26T00:46:57.421Z,83.68
2018-07-26T00:50:02.068Z,83.71
2018-07-26T00:53:06.595Z,83.62
2018-07-26T00:56:11.117Z,83.69
2018-07-26T00:59:15.792Z,83.81
2018-07-26T01:02:20.550Z,84.14
2018-07-26T01:05:24.987Z,83.89
2018-07-26T01:08:29.323Z,84.49
2018-07-26T01:11:33.760Z,84.97
2018-07-26T01:14:38.322Z,85.17
2018-07-26T01:17:42.987Z,85.58
2018-07-26T01:20:47.482Z,85.77
2018-07-26T01:23:54.485Z,86.28
2018-07-26T01:26:59.260Z,85.88
2018-07-26T01:30:03.731Z,86.04
2018-07-26T01:33:08.406Z,86.65
2018-07-26T01:36:13.042Z,86.64
2018-07-26T01:39:17.720Z,87.05
2018-07-26T01:42:22.136Z,87.65
2018-07-26T01:45:26.323Z,87.52
2018-07-26T01:48:30.929Z,87.80
2018-07-26T01:51:35.365Z,88.61
2018-07-26T01:54:39.744Z,88.79
2018-07-26T01:57:44.319Z,89.45
2018-07-26T02:00:49.257Z,90.12
2018-07-26T02:03:54.225Z,89.97
2018-07-26T02:06:58.785Z,89.65
2018-07-26T02:10:03.616Z,89.95
2018-07-26T02:13:08.037Z,90.57
2018-07-26T02:16:12.639Z,90.49
2018-07-26T02:19:17.830Z,90.65
2018-07-26T02:22:25.886Z,90.26
2018-07-26T02:25:30.343Z,90.28
2018-07-26T02:28:34.942Z,90.21
2018-07-26T02:31:39.346Z,90.36
2018-07-26T02:34:44.263Z,90.61
2018-07-26T02:37:49.065Z,90.49
2018-07-26T02:40:54.030Z,90.86
2018-07-26T02:44:01.403Z,90.52
2018-07-26T02:47:06.170Z,91.65
2018-07-26T02:50:10.756Z,91.50
2018-07-26T02:53:15.409Z,91.71
2018-07-26T02:56:20.159Z,92.63
2018-07-26T02:59:24.635Z,93.18
2018-07-26T03:02:29.321Z,93.11
2018-07-26T03:05:34.312Z,93.91
2018-07-26T03:08:39.308Z,93.93
2018-07-26T03:11:44.049Z,93.31
2018-07-26T03:14:49.012Z,93.02
2018-07-26T03:17:54.334Z,94.22
2018-07-26T03:20:59.506Z,93.00
2018-07-26T03:24:04.191Z,93.40
2018-07-26T03:27:09.321Z,94.28
2018-07-26T03:30:13.881Z,94.40
2018-07-26T03:33:18.645Z,94.02
2018-07-26T03:36:23.028Z,94.46
2018-07-26T03:39:28.046Z,94.51
2018-07-26T03:42:40.097Z,94.95
2018-07-26T03:45:45.074Z,95.05
2018-07-26T03:48:49.870Z,94.79
2018-07-26T03:51:54.807Z,94.59
2018-07-26T03:54:59.355Z,93.83
2018-07-26T03:58:04.303Z,93.98
2018-07-26T04:01:08.735Z,93.85
2018-07-26T04:04:13.554Z,94.21
2018-07-26T04:07:18.101Z,93.77
2018-07-26T04:10:23.270Z,94.42
2018-07-26T04:13:28.417Z,94.39
2018-07-26T04:16:32.977Z,93.44
2018-07-26T04:19:37.862Z,94.37
2018-07-26T04:22:43.011Z,93.94
2018-07-26T04:25:47.928Z,94.27
2018-07-26T04:28:53.618Z,94.22
2018-07-26T04:31:59.059Z,94.12
2018-07-26T04:35:04.307Z,94.00
2018-07-26T04:38:10.271Z,94.29
2018-07-26T04:41:15.059Z,94.08
2018-07-26T04:44:20.399Z,94.53
2018-07-26T04:47:25.930Z,94.40
2018-07-26T04:50:30.605Z,93.64
2018-07-26T04:53:35.839Z,93.27
2018-07-26T04:56:40.767Z,94.16
2018-07-26T04:59:45.734Z,93.80
2018-07-26T05:02:50.058Z,93.49
2018-07-26T05:05:54.356Z,92.99
2018-07-26T05:08:58.769Z,93.13
2018-07-26T05:12:03.037Z,91.79
2018-07-26T05:15:08.179Z,91.67
2018-07-26T05:18:12.681Z,91.03
2018-07-26T05:21:17.197Z,91.04
2018-07-26T05:24:22.330Z,90.70
2018-07-26T05:27:26.865Z,90.54
2018-07-26T05:30:31.401Z,88.92
2018-07-26T05:33:35.705Z,89.17
2018-07-26T05:36:40.020Z,88.56
2018-07-26T05:39:44.353Z,87.37
2018-07-26T05:42:48.754Z,87.85
2018-07-26T05:45:53.663Z,87.77
2018-07-26T05:48:57.783Z,85.97
2018-07-26T05:52:03.470Z,85.62
2018-07-26T05:55:09.499Z,84.64
2018-07-26T05:58:13.763Z,81.71
2018-07-26T06:01:18.169Z,81.18
2018-07-26T06:04:23.106Z,80.08
2018-07-26T06:07:27.657Z,78.91
2018-07-26T06:10:32.346Z,78.45
2018-07-26T06:13:37.184Z,77.33
2018-07-26T06:16:43.492Z,75.69
2018-07-26T06:19:47.790Z,74.89
2018-07-26T06:22:52.275Z,75.46
2018-07-26T06:25:56.800Z,74.88
2018-07-26T06:29:01.417Z,73.12
2018-07-26T06:32:06.508Z,72.11
2018-07-26T06:35:11.114Z,71.81
2018-07-26T06:38:15.388Z,71.01
2018-07-26T06:41:19.419Z,70.85
2018-07-26T06:44:23.804Z,70.18
2018-07-26T06:47:28.281Z,71.18
2018-07-26T06:50:33.030Z,70.39
2018-07-26T06:53:39.127Z,71.54
2018-07-26T06:56:43.862Z,70.55
2018-07-26T06:59:48.193Z,69.53
2018-07-26T07:02:52.836Z,68.66
2018-07-26T07:05:58.653Z,70.23
2018-07-26T07:09:03.439Z,68.79
2018-07-26T07:12:08.031Z,68.05
2018-07-26T07:15:12.634Z,68.22
2018-07-26T07:18:17.078Z,68.36
2018-07-26T07:21:21.607Z,69.19
2018-07-26T07:24:25.928Z,69.21
2018-07-26T07:27:30.607Z,69.26
2018-07-26T07:30:35.314Z,69.29
2018-07-26T07:33:39.644Z,69.41
2018-07-26T07:36:44.123Z,69.67
2018-07-26T07:39:48.236Z,68.16
2018-07-26T07:42:52.580Z,67.54
2018-07-26T07:45:56.952Z,67.52
2018-07-26T07:49:01.484Z,67.95
2018-07-26T07:52:05.978Z,67.48
2018-07-26T07:55:10.578Z,66.13
2018-07-26T07:58:15.196Z,66.45
2018-07-26T08:01:19.508Z,65.86
2018-07-26T08:04:23.831Z,65.42
2018-07-26T08:07:28.320Z,65.65
2018-07-26T08:10:32.633Z,65.00
2018-07-26T08:13:36.948Z,65.35
2018-07-26T08:16:41.406Z,64.35
2018-07-26T08:19:45.792Z,64.65
2018-07-26T08:22:50.138Z,64.86
2018-07-26T08:25:54.560Z,64.55
2018-07-26T08:28:58.896Z,62.56
2018-07-26T08:32:03.305Z,61.88
2018-07-26T08:35:07.646Z,62.27
2018-07-26T08:38:11.988Z,62.75
2018-07-26T08:41:16.600Z,62.33
2018-07-26T08:44:21.277Z,62.71
2018-07-26T08:47:25.633Z,61.75
2018-07-26T08:50:30.058Z,61.58
2018-07-26T08:53:34.364Z,61.00
2018-07-26T08:56:38.653Z,61.36
2018-07-26T08:59:43.004Z,60.68
2018-07-26T09:02:48.134Z,60.04
2018-07-26T09:05:52.370Z,58.74
2018-07-26T09:08:56.789Z,57.99
2018-07-26T09:12:01.106Z,57.63
2018-07-26T09:15:06.557Z,56.98
2018-07-26T09:18:10.922Z,56.25
2018-07-26T09:21:15.289Z,55.26
2018-07-26T09:24:19.597Z,54.50
2018-07-26T09:27:23.933Z,55.04
2018-07-26T09:30:28.252Z,54.90
2018-07-26T09:33:32.707Z,55.86
2018-07-26T09:36:37.073Z,55.74
2018-07-26T09:39:41.431Z,54.77
2018-07-26T09:42:46.145Z,55.85
2018-07-26T09:45:50.581Z,54.80
2018-07-26T09:48:54.972Z,56.47
2018-07-26T09:51:59.572Z,55.81
2018-07-26T09:55:04.017Z,55.70
2018-07-26T09:58:08.334Z,55.54
2018-07-26T10:01:18.014Z,55.21
2018-07-26T10:04:22.402Z,55.76
2018-07-26T10:07:26.735Z,55.41
2018-07-26T10:10:31.169Z,54.26
2018-07-26T10:13:35.524Z,54.88
2018-07-26T10:16:40.802Z,54.36
2018-07-26T10:19:45.121Z,54.35
2018-07-26T10:22:49.460Z,53.96
2018-07-26T10:25:53.790Z,54.85
2018-07-26T10:28:58.103Z,53.55
2018-07-26T10:32:02.412Z,54.19
2018-07-26T10:35:06.750Z,53.75
2018-07-26T10:38:11.052Z,53.88
2018-07-26T10:41:15.506Z,54.20
2018-07-26T10:44:19.772Z,53.65
2018-07-26T10:47:24.156Z,54.36
2018-07-26T10:50:28.526Z,53.25
2018-07-26T10:53:32.676Z,53.79
2018-07-26T10:56:36.951Z,53.64
2018-07-26T10:59:41.299Z,54.22
2018-07-26T11:02:45.601Z,54.43
2018-07-26T11:05:49.987Z,53.78
2018-07-26T11:08:54.277Z,53.75
2018-07-26T11:11:58.859Z,52.82
2018-07-26T11:15:21.425Z,52.61
2018-07-26T11:18:25.666Z,53.92
2018-07-26T11:21:29.926Z,53.71
2018-07-26T11:24:34.266Z,53.00
2018-07-26T11:27:39.714Z,51.85
2018-07-26T11:30:44.027Z,52.94
2018-07-26T11:33:48.379Z,52.74
2018-07-26T11:36:52.585Z,51.44
2018-07-26T11:39:56.916Z,52.65
2018-07-26T11:43:01.204Z,51.23
2018-07-26T11:46:05.797Z,51.45
2018-07-26T11:49:10.062Z,51.10
2018-07-26T11:52:14.385Z,52.50
2018-07-26T11:55:18.701Z,51.92
2018-07-26T11:58:23.068Z,51.61
2018-07-26T12:01:27.428Z,50.29
2018-07-26T12:04:31.996Z,51.54
2018-07-26T12:07:36.311Z,50.59
2018-07-26T12:10:40.610Z,51.89
2018-07-26T12:13:44.738Z,52.43
2018-07-26T12:16:49.019Z,51.98
2018-07-26T12:19:53.281Z,51.72
2018-07-26T12:22:57.670Z,51.88
2018-07-26T12:26:02.001Z,52.25
2018-07-26T12:29:06.333Z,52.29
2018-07-26T12:32:11.305Z,53.16
2018-07-26T12:35:15.714Z,52.81
2018-07-26T12:38:20.088Z,51.92
2018-07-26T12:41:24.386Z,51.99
2018-07-26T12:44:28.431Z,52.09
2018-07-26T12:47:32.797Z,51.01
2018-07-26T12:50:37.174Z,51.35
2018-07-26T12:53:41.689Z,52.37
2018-07-26T12:56:45.837Z,52.02
2018-07-26T12:59:50.236Z,51.55
2018-07-26T13:02:54.541Z,52.15
2018-07-26T13:05:58.836Z,51.97
2018-07-26T13:09:03.407Z,51.21
2018-07-26T13:12:07.721Z,50.90
2018-07-26T13:15:12.020Z,52.56
2018-07-26T13:18:16.358Z,51.94
2018-07-26T13:21:20.791Z,53.01
2018-07-26T13:24:25.077Z,52.30
2018-07-26T13:27:29.687Z,52.45
2018-07-26T13:30:34.295Z,52.42
2018-07-26T13:33:38.652Z,51.95
2018-07-26T13:36:42.985Z,52.09
2018-07-26T13:39:47.304Z,52.39
2018-07-26T13:42:51.612Z,51.93
2018-07-26T13:45:55.870Z,52.00
2018-07-26T13:49:00.173Z,53.13
2018-07-26T13:52:04.634Z,51.93
2018-07-26T13:55:08.892Z,51.75
2018-07-26T13:58:13.144Z,51.08
2018-07-26T14:01:17.437Z,51.71
2018-07-26T14:04:21.700Z,50.65
2018-07-26T14:07:25.967Z,50.51
2018-07-26T14:10:30.214Z,50.07
2018-07-26T14:13:34.331Z,49.87
2018-07-26T14:16:38.652Z,49.87
2018-07-26T14:19:42.920Z,49.17
2018-07-26T14:22:47.175Z,49.75
2018-07-26T14:25:51.504Z,50.48
2018-07-26T14:28:55.802Z,50.69
2018-07-26T14:32:00.122Z,50.92
2018-07-26T14:35:04.836Z,48.97
2018-07-26T14:38:09.428Z,50.94
2018-07-26T14:41:13.677Z,48.72
2018-07-26T14:44:17.994Z,48.02
2018-07-26T14:47:22.324Z,48.56
2018-07-26T14:50:26.856Z,49.76
2018-07-26T14:53:31.169Z,49.62
2018-07-26T14:56:35.869Z,50.05
2018-07-26T14:59:40.197Z,49.64
2018-07-26T15:02:44.543Z,48.95
2018-07-26T15:05:48.861Z,48.47
2018-07-26T15:08:53.215Z,48.77
2018-07-26T15:11:57.509Z,47.96
2018-07-26T15:15:01.664Z,48.98
2018-07-26T15:18:05.936Z,47.49
2018-07-26T15:21:10.304Z,47.25
2018-07-26T15:24:14.579Z,46.88
2018-07-26T15:27:18.931Z,46.55
2018-07-26T15:30:23.784Z,45.72
2018-07-26T15:33:28.083Z,45.60
2018-07-26T15:36:32.497Z,44.84
2018-07-26T15:39:36.796Z,44.55
2018-07-26T15:42:41.844Z,44.46
2018-07-26T15:45:46.145Z,44.84
2018-07-26T15:48:50.461Z,44.16
2018-07-26T15:51:54.899Z,45.08
2018-07-26T15:54:59.316Z,45.60
2018-07-26T15:58:04.278Z,46.46
2018-07-26T16:01:08.587Z,45.59
2018-07-26T16:04:12.930Z,46.26
2018-07-26T16:07:17.187Z,46.72
2018-07-26T16:10:21.577Z,46.52
2018-07-26T16:13:25.977Z,44.63
2018-07-26T16:16:30.302Z,44.67
2018-07-26T16:19:34.625Z,44.96
2018-07-26T16:22:38.922Z,44.07
2018-07-26T16:25:43.361Z,44.30
2018-07-26T16:28:47.727Z,43.67
2018-07-26T16:31:52.108Z,44.34
2018-07-26T16:34:56.532Z,45.03
2018-07-26T16:38:00.827Z,43.54
2018-07-26T16:41:04.980Z,43.03
2018-07-26T16:44:09.464Z,42.50
2018-07-26T16:47:13.781Z,42.90
2018-07-26T16:50:18.122Z,43.44
2018-07-26T16:53:22.373Z,43.67
2018-07-26T16:56:26.723Z,42.87
2018-07-26T16:59:31.224Z,44.34
2018-07-26T17:02:35.587Z,43.59
2018-07-26T17:05:40.660Z,43.93
2018-07-26T17:08:46.390Z,43.65
2018-07-26T17:11:50.853Z,44.37
2018-07-26T17:14:55.365Z,43.41
2018-07-26T17:17:59.640Z,43.34
2018-07-26T17:21:03.921Z,44.19
2018-07-26T17:24:08.802Z,44.99
2018-07-26T17:27:13.120Z,47.81
2018-07-26T17:30:17.416Z,49.41
2018-07-26T17:33:21.742Z,50.35
2018-07-26T17:36:26.004Z,50.83
2018-07-26T17:39:30.326Z,51.79
2018-07-26T17:42:34.718Z,51.11
2018-07-26T17:45:39.131Z,51.46
2018-07-26T17:48:43.451Z,51.89
2018-07-26T17:51:47.763Z,51.98
2018-07-26T17:54:52.083Z,52.58
2018-07-26T17:57:56.384Z,52.33
2018-07-26T18:01:00.741Z,52.80
2018-07-26T18:04:05.162Z,54.11
2018-07-26T18:07:09.519Z,53.39
2018-07-26T18:10:13.878Z,53.38
2018-07-26T18:13:18.132Z,54.06
2018-07-26T18:16:22.556Z,54.01
2018-07-26T18:19:26.872Z,55.13
2018-07-26T18:22:31.298Z,54.92
2018-07-26T18:25:35.785Z,56.89
2018-07-26T18:28:40.386Z,56.40
2018-07-26T18:31:44.915Z,57.44
2018-07-26T18:34:49.053Z,58.77
2018-07-26T18:37:53.377Z,58.77
2018-07-26T18:40:57.726Z,58.87
2018-07-26T18:44:02.085Z,59.25
2018-07-26T18:47:06.375Z,61.42
2018-07-26T18:50:11.962Z,62.65
2018-07-26T18:53:16.307Z,63.10
2018-07-26T18:56:20.629Z,64.40
2018-07-26T18:59:24.996Z,65.77
2018-07-26T19:02:29.383Z,65.75
2018-07-26T19:05:33.800Z,66.74
2018-07-26T19:08:38.225Z,65.96
2018-07-26T19:11:43.113Z,66.22
2018-07-26T19:14:47.502Z,66.70
2018-07-26T19:17:51.923Z,67.13
2018-07-26T19:20:56.508Z,68.37
2018-07-26T19:24:03.369Z,68.10
2018-07-26T19:27:07.926Z,69.07
2018-07-26T19:30:14.289Z,70.65
2018-07-26T19:33:19.418Z,69.98
2018-07-26T19:36:23.925Z,70.19
2018-07-26T19:39:28.209Z,68.74
2018-07-26T19:42:32.485Z,68.33
2018-07-26T19:45:38.907Z,66.71
2018-07-26T19:48:43.285Z,65.25
2018-07-26T19:51:47.695Z,65.11
2018-07-26T19:54:52.022Z,65.02
2018-07-26T19:57:56.328Z,65.06
2018-07-26T20:01:00.757Z,63.63
2018-07-26T20:04:05.477Z,64.15
2018-07-26T20:07:09.839Z,63.90
2018-07-26T20:10:14.298Z,64.31
2018-07-26T20:13:18.801Z,65.91
2018-07-26T20:16:23.225Z,65.70
2018-07-26T20:19:27.616Z,65.41
2018-07-26T20:22:32.216Z,66.04
2018-07-26T20:25:40.848Z,65.99
2018-07-26T20:28:45.308Z,66.44
2018-07-26T20:31:49.902Z,65.97
2018-07-26T20:34:54.156Z,65.89
2018-07-26T20:37:58.553Z,64.81
2018-07-26T20:41:02.979Z,64.54
2018-07-26T20:44:07.516Z,65.01
2018-07-26T20:47:11.906Z,64.37
2018-07-26T20:50:16.596Z,65.19
2018-07-26T20:53:21.013Z,65.58
2018-07-26T20:56:25.449Z,65.50
2018-07-26T20:59:29.989Z,66.07
2018-07-26T21:02:34.363Z,65.74
2018-07-26T21:05:38.806Z,66.02
2018-07-26T21:08:43.212Z,66.06
2018-07-26T21:11:47.711Z,66.45
2018-07-26T21:14:52.153Z,67.05
2018-07-26T21:17:56.601Z,67.59
2018-07-26T21:21:01.073Z,68.07
2018-07-26T21:24:05.573Z,67.97
2018-07-26T21:27:09.936Z,68.06
2018-07-26T21:30:14.393Z,71.09
2018-07-26T21:33:18.800Z,72.05
2018-07-26T21:36:23.214Z,73.46
2018-07-26T21:39:27.655Z,75.87
2018-07-26T21:42:31.974Z,77.26
2018-07-26T21:45:36.502Z,76.71
2018-07-26T21:48:40.998Z,76.97
2018-07-26T21:51:45.283Z,77.22
2018-07-26T21:54:49.651Z,78.52
2018-07-26T21:57:54.676Z,78.81
2018-07-26T22:00:59.947Z,79.48
2018-07-26T22:04:04.272Z,80.67
2018-07-26T22:07:08.671Z,80.04
2018-07-26T22:10:13.009Z,80.61
2018-07-26T22:13:17.364Z,82.03
2018-07-26T22:16:21.710Z,81.72
2018-07-26T22:19:26.046Z,82.28
2018-07-26T22:22:30.363Z,82.07
2018-07-26T22:25:34.697Z,82.90
2018-07-26T22:28:39.169Z,84.45
2018-07-26T22:31:43.755Z,84.69
2018-07-26T22:34:48.203Z,84.87
2018-07-26T22:37:52.587Z,83.67
2018-07-26T22:40:56.900Z,83.10
2018-07-26T22:44:01.271Z,83.17
2018-07-26T22:47:05.603Z,83.26
2018-07-26T22:50:09.905Z,83.10
2018-07-26T22:53:14.238Z,82.47
2018-07-26T22:56:18.444Z,83.62
2018-07-26T22:59:23.576Z,83.41
2018-07-26T23:02:29.540Z,81.98
2018-07-26T23:05:34.049Z,81.65
2018-07-26T23:08:38.454Z,80.72
2018-07-26T23:11:42.876Z,81.25
2018-07-26T23:14:47.404Z,80.47
2018-07-26T23:17:51.873Z,80.33
2018-07-26T23:20:55.985Z,80.04
2018-07-26T23:24:01.376Z,78.99
2018-07-26T23:27:06.033Z,79.41
2018-07-26T23:30:12.633Z,78.45
2018-07-26T23:33:16.989Z,79.05
2018-07-26T23:36:21.316Z,78.11
2018-07-26T23:39:25.635Z,78.18
2018-07-26T23:42:30.003Z,77.90
2018-07-26T23:45:34.592Z,77.86
2018-07-26T23:48:39.857Z,77.94
2018-07-26T23:51:44.381Z,77.68
2018-07-26T23:54:49.005Z,77.37
2018-07-26T23:57:53.379Z,76.80
